Time;durP1;ratioP1;P1;durP2;ratioP2;P2;SDS_P1;SDS_P2;PMS_P1;PMS_P2;Temp;Humidity;BMP_temperature;BMP_pressure;BME280_temperature;BME280_humidity;BME280_pressure;Samples;Min_cycle;Max_cycle;Signal;HPM_P1;HPM_P2
2022/01/10 00:00:41;;;;;;;21.30;8.73;;;4.10;99.90;;;;;;5007456;28;20080;-73
2022/01/10 00:03:08;;;;;;;24.50;8.73;;;4.10;99.90;;;;;;5005457;28;20046;-73
2022/01/10 00:05:34;;;;;;;18.20;8.20;;;4.10;99.90;;;;;;5006013;28;20050;-74
2022/01/10 00:08:02;;;;;;;19.92;8.18;;;4.00;99.90;;;;;;5007721;28;20052;-72
2022/01/10 00:10:28;;;;;;;23.75;7.72;;;3.90;99.90;;;;;;5007539;28;20049;-72
2022/01/10 00:12:54;;;;;;;19.60;8.00;;;3.90;99.90;;;;;;5008215;28;20054;-73
2022/01/10 00:15:19;;;;;;;21.42;7.80;;;3.80;99.90;;;;;;5005969;28;20410;-72
2022/01/10 00:17:46;;;;;;;20.25;8.68;;;3.80;99.90;;;;;;5008244;28;20144;-72
2022/01/10 00:20:16;;;;;;;17.70;8.55;;;3.70;99.90;;;;;;5007454;28;20073;-73
2022/01/10 00:22:46;;;;;;;22.58;9.07;;;3.70;99.90;;;;;;5005099;28;20585;-72
2022/01/10 00:25:13;;;;;;;21.15;9.70;;;3.70;99.90;;;;;;5004699;28;20038;-73
2022/01/10 00:27:39;;;;;;;23.60;9.50;;;3.70;99.90;;;;;;5007099;28;20046;-72
2022/01/10 00:30:05;;;;;;;24.10;9.18;;;3.60;99.90;;;;;;5006202;28;20926;-72
2022/01/10 00:32:31;;;;;;;20.73;8.40;;;3.60;99.90;;;;;;5006491;28;20129;-72
2022/01/10 00:34:56;;;;;;;19.77;8.88;;;3.60;99.90;;;;;;5008427;28;20548;-72
2022/01/10 00:37:22;;;;;;;21.73;8.88;;;3.50;99.90;;;;;;5007496;28;20082;-72
2022/01/10 00:39:49;;;;;;;17.40;8.38;;;3.50;99.90;;;;;;5005174;28;20033;-73
2022/01/10 00:42:16;;;;;;;21.88;8.73;;;3.40;99.90;;;;;;5006193;28;20145;-72
2022/01/10 00:44:49;;;;;;;20.45;10.00;;;3.30;99.90;;;;;;5004759;28;20528;-72
2022/01/10 00:47:15;;;;;;;23.92;10.05;;;3.30;99.90;;;;;;5005247;28;20042;-72
2022/01/10 00:49:41;;;;;;;20.98;9.13;;;3.20;99.90;;;;;;5008124;28;20081;-73
2022/01/10 00:52:06;;;;;;;20.20;9.00;;;3.20;99.90;;;;;;5004735;28;20513;-72
2022/01/10 00:54:32;;;;;;;17.90;8.80;;;3.10;99.90;;;;;;5007275;28;20042;-72
2022/01/10 00:56:57;;;;;;;16.92;9.50;;;3.10;99.90;;;;;;5006688;28;20038;-73
2022/01/10 00:59:23;;;;;;;19.60;9.35;;;3.00;99.90;;;;;;5008370;28;20671;-72
2022/01/10 01:01:49;;;;;;;18.92;9.70;;;3.00;99.90;;;;;;5001044;28;20046;-73
2022/01/10 01:04:15;;;;;;;22.45;10.10;;;2.90;99.90;;;;;;5008390;28;20738;-73
2022/01/10 01:06:41;;;;;;;18.83;9.88;;;2.90;99.90;;;;;;5005153;28;20085;-72
2022/01/10 01:09:09;;;;;;;19.23;8.35;;;2.90;99.90;;;;;;5007131;28;20481;-72
2022/01/10 01:12:08;;;;;;;22.38;10.02;;;2.80;99.90;;;;;;5006478;28;20080;-73
2022/01/10 01:17:12;;;;;;;24.02;9.32;;;2.70;99.90;;;;;;5006838;28;20043;-72
2022/01/10 01:25:07;;;;;;;17.48;9.30;;;2.60;99.90;;;;;;5005617;28;22063;-73
2022/01/10 01:27:32;;;;;;;21.83;10.68;;;2.70;99.90;;;;;;5006524;28;20052;-72
2022/01/10 01:29:58;;;;;;;22.15;10.23;;;2.70;99.90;;;;;;5004698;28;20046;-72
2022/01/10 01:32:24;;;;;;;19.63;9.52;;;2.70;99.90;;;;;;5006732;28;20038;-73
2022/01/10 01:34:50;;;;;;;17.20;9.05;;;2.70;99.90;;;;;;5004796;28;20042;-72
2022/01/10 01:37:16;;;;;;;24.63;9.75;;;2.70;99.90;;;;;;5005778;28;20049;-73
2022/01/10 01:39:41;;;;;;;20.67;10.93;;;2.70;99.90;;;;;;5006458;28;20489;-72
2022/01/10 01:44:52;;;;;;;24.10;11.18;;;2.60;99.90;;;;;;5006162;28;20058;-72
2022/01/10 01:47:18;;;;;;;21.95;10.85;;;2.50;99.90;;;;;;5003308;28;20069;-72
2022/01/10 01:49:44;;;;;;;23.83;11.57;;;2.60;99.90;;;;;;5006550;28;20081;-72
2022/01/10 01:52:09;;;;;;;20.58;11.43;;;2.60;99.90;;;;;;5005054;28;20050;-72
2022/01/10 01:54:35;;;;;;;24.13;12.13;;;2.60;99.90;;;;;;5005073;28;20080;-72
2022/01/10 01:57:01;;;;;;;22.25;11.30;;;2.60;99.90;;;;;;5005060;28;20077;-72
2022/01/10 01:59:27;;;;;;;24.10;12.45;;;2.50;99.90;;;;;;5004460;28;20049;-73
2022/01/10 02:01:52;;;;;;;19.33;11.18;;;2.50;99.90;;;;;;5004174;28;20050;-72
2022/01/10 02:04:18;;;;;;;20.67;11.38;;;2.50;99.90;;;;;;5017547;28;20066;-72
2022/01/10 02:06:44;;;;;;;21.88;11.05;;;2.50;99.90;;;;;;5006857;28;20590;-72
2022/01/10 02:09:14;;;;;;;24.95;11.05;;;2.50;99.90;;;;;;5004310;28;20085;-73
2022/01/10 02:11:40;;;;;;;19.70;11.52;;;2.40;99.90;;;;;;5005020;28;20401;-71
2022/01/10 02:14:06;;;;;;;22.85;11.77;;;2.40;99.90;;;;;;5006184;28;20564;-73
2022/01/10 02:16:39;;;;;;;21.13;10.77;;;2.40;99.90;;;;;;5004658;28;20125;-72
2022/01/10 02:19:05;;;;;;;22.25;11.18;;;2.40;99.90;;;;;;5006542;28;20107;-72
2022/01/10 02:21:31;;;;;;;23.02;11.02;;;2.30;99.90;;;;;;5010364;28;20452;-72
2022/01/10 02:23:58;;;;;;;23.40;11.20;;;2.30;99.90;;;;;;5007313;28;20103;-72
2022/01/10 02:26:24;;;;;;;26.02;11.15;;;2.30;99.90;;;;;;5010131;28;20100;-73
2022/01/10 02:28:49;;;;;;;24.73;11.88;;;2.30;99.90;;;;;;5008854;28;20493;-73
2022/01/10 02:31:15;;;;;;;28.60;11.95;;;2.40;99.90;;;;;;4998036;28;20468;-72
2022/01/10 02:33:41;;;;;;;24.10;11.75;;;2.40;99.90;;;;;;5009350;28;20042;-72
2022/01/10 02:36:24;;;;;;;18.55;11.60;;;2.40;99.90;;;;;;5008437;28;21920;-72
2022/01/10 02:39:02;;;;;;;23.08;12.10;;;2.40;99.90;;;;;;5006862;28;20521;-72
2022/01/10 02:41:31;;;;;;;23.52;11.10;;;2.40;99.90;;;;;;5006914;28;20046;-72
2022/01/10 02:43:59;;;;;;;20.75;10.75;;;2.40;99.90;;;;;;5005564;28;20046;-73
2022/01/10 02:46:25;;;;;;;23.67;11.00;;;2.30;99.90;;;;;;5011443;28;20049;-72
2022/01/10 02:48:52;;;;;;;28.45;11.77;;;2.30;99.90;;;;;;5007547;28;20478;-72
2022/01/10 02:51:18;;;;;;;29.38;12.65;;;2.30;99.90;;;;;;5009780;28;20818;-72
2022/01/10 02:53:44;;;;;;;25.92;11.75;;;2.40;99.90;;;;;;5023500;28;20046;-72
2022/01/10 02:56:09;;;;;;;26.85;11.75;;;2.30;99.90;;;;;;5008779;28;20544;-72
2022/01/10 02:58:35;;;;;;;28.67;11.50;;;2.30;99.90;;;;;;5007714;28;20128;-73
2022/01/10 03:01:01;;;;;;;19.40;10.95;;;2.30;99.90;;;;;;5007467;28;20088;-72
2022/01/10 03:03:28;;;;;;;24.27;11.40;;;2.30;99.90;;;;;;5009873;28;20156;-72
2022/01/10 03:05:53;;;;;;;23.42;10.85;;;2.20;99.90;;;;;;5010228;28;20088;-72
2022/01/10 03:08:19;;;;;;;23.05;11.70;;;2.20;99.90;;;;;;5007227;28;20078;-73
2022/01/10 03:10:45;;;;;;;24.85;11.88;;;2.20;99.90;;;;;;5012247;28;20107;-72
2022/01/10 03:13:10;;;;;;;25.30;12.05;;;2.20;99.90;;;;;;5007113;28;20045;-72
2022/01/10 03:15:36;;;;;;;22.63;10.82;;;2.10;99.90;;;;;;5009010;28;20516;-72
2022/01/10 03:18:02;;;;;;;25.20;12.70;;;2.10;99.90;;;;;;5007163;28;20053;-72
2022/01/10 03:20:27;;;;;;;22.13;12.27;;;2.10;99.90;;;;;;4997441;28;20433;-73
2022/01/10 03:22:54;;;;;;;26.37;12.53;;;2.10;99.90;;;;;;5004093;28;20477;-72
2022/01/10 03:25:20;;;;;;;28.05;13.20;;;2.10;99.90;;;;;;5001933;28;20108;-72
2022/01/10 03:27:46;;;;;;;26.42;12.80;;;2.10;99.90;;;;;;5006444;28;20052;-72
2022/01/10 03:30:15;;;;;;;21.48;12.77;;;2.10;99.90;;;;;;5008734;28;20066;-72
2022/01/10 03:32:42;;;;;;;24.88;12.82;;;2.10;99.90;;;;;;5005412;28;20127;-72
2022/01/10 03:35:08;;;;;;;28.13;13.20;;;2.10;99.90;;;;;;5007846;28;20038;-72
2022/01/10 03:37:33;;;;;;;25.73;12.35;;;2.00;99.90;;;;;;5008051;28;20052;-72
2022/01/10 03:39:59;;;;;;;25.00;13.45;;;2.00;99.90;;;;;;5008674;28;20038;-73
2022/01/10 03:42:25;;;;;;;27.77;15.63;;;2.00;99.90;;;;;;5008464;28;20076;-73
2022/01/10 03:44:50;;;;;;;32.15;16.45;;;2.00;99.90;;;;;;5009606;28;20037;-72
2022/01/10 03:47:18;;;;;;;25.65;14.98;;;2.10;99.90;;;;;;5006232;28;20056;-72
2022/01/10 03:49:43;;;;;;;;;;;2.10;99.90;;;;;;4990167;28;20046;-72
2022/01/10 03:52:09;;;;;;;25.30;14.10;;;2.10;99.90;;;;;;4997826;28;20012;-73
2022/01/10 03:54:35;;;;;;;26.85;14.43;;;2.00;99.90;;;;;;5005334;28;20046;-72
2022/01/10 03:57:00;;;;;;;30.95;15.15;;;2.00;99.90;;;;;;5007132;28;20046;-71
2022/01/10 03:59:26;;;;;;;25.30;14.75;;;2.10;99.90;;;;;;5008669;28;20069;-72
2022/01/10 04:01:52;;;;;;;25.25;14.23;;;2.10;99.90;;;;;;4998231;28;20042;-73
2022/01/10 04:04:18;;;;;;;28.10;15.40;;;2.10;99.90;;;;;;5008680;28;20489;-72
2022/01/10 04:06:44;;;;;;;29.55;17.23;;;2.10;99.90;;;;;;5009568;28;20034;-72
2022/01/10 04:09:09;;;;;;;27.55;15.55;;;2.10;99.90;;;;;;5007663;28;20604;-73
2022/01/10 04:11:36;;;;;;;26.75;14.95;;;2.10;99.90;;;;;;5007443;28;20104;-73
2022/01/10 04:14:01;;;;;;;27.13;15.57;;;2.10;99.90;;;;;;5006924;28;20030;-73
2022/01/10 04:16:27;;;;;;;23.63;14.60;;;2.10;99.90;;;;;;5007900;28;20052;-73
2022/01/10 04:18:52;;;;;;;26.23;15.85;;;2.00;99.90;;;;;;5021018;28;20053;-73
2022/01/10 04:21:18;;;;;;;26.05;15.50;;;2.00;99.90;;;;;;5008563;28;20104;-73
2022/01/10 04:23:43;;;;;;;26.17;15.07;;;2.00;99.90;;;;;;4998945;28;20489;-72
2022/01/10 04:26:09;;;;;;;22.73;14.30;;;1.90;99.90;;;;;;5007337;28;20078;-72
2022/01/10 04:28:35;;;;;;;27.15;13.65;;;1.90;99.90;;;;;;5005980;28;20041;-73
2022/01/10 04:31:00;;;;;;;29.58;14.60;;;1.90;99.90;;;;;;5006839;28;20136;-73
2022/01/10 04:33:29;;;;;;;23.92;14.63;;;1.80;99.90;;;;;;5007806;28;20037;-72
2022/01/10 04:35:56;;;;;;;26.35;14.30;;;1.80;99.90;;;;;;5006000;28;20048;-72
2022/01/10 04:38:22;;;;;;;23.37;14.33;;;1.80;99.90;;;;;;5009043;28;20062;-73
2022/01/10 04:40:47;;;;;;;26.95;14.57;;;1.70;99.90;;;;;;5006254;28;20067;-73
2022/01/10 04:43:13;;;;;;;19.70;13.95;;;1.60;99.90;;;;;;5006511;28;20092;-72
2022/01/10 04:45:39;;;;;;;20.92;14.15;;;1.60;99.90;;;;;;5005256;28;20038;-72
2022/01/10 04:48:05;;;;;;;28.70;15.13;;;1.60;99.90;;;;;;5006790;28;20057;-72
2022/01/10 04:52:57;;;;;;;21.42;13.70;;;1.50;99.90;;;;;;5005904;28;20733;-72
2022/01/10 04:55:22;;;;;;;24.42;14.70;;;1.40;99.90;;;;;;5006754;28;20137;-72
2022/01/10 04:57:48;;;;;;;24.88;13.77;;;1.40;99.90;;;;;;5015290;28;20046;-72
2022/01/10 05:00:15;;;;;;;28.25;15.60;;;1.40;99.90;;;;;;5013106;28;20049;-72
2022/01/10 05:02:44;;;;;;;25.38;14.98;;;1.30;99.90;;;;;;5006553;28;20042;-73
2022/01/10 05:05:09;;;;;;;22.52;14.98;;;1.30;99.90;;;;;;5005273;28;20042;-73
2022/01/10 05:07:35;;;;;;;21.80;15.20;;;1.30;99.90;;;;;;5008768;28;20046;-73
2022/01/10 05:10:00;;;;;;;23.65;14.38;;;1.30;99.90;;;;;;5006187;28;20049;-72
2022/01/10 05:12:28;;;;;;;24.77;15.35;;;1.30;99.90;;;;;;5005220;28;20603;-72
2022/01/10 05:14:54;;;;;;;25.73;15.88;;;1.30;99.90;;;;;;5006684;28;20581;-72
2022/01/10 05:17:22;;;;;;;26.83;16.80;;;1.30;99.90;;;;;;5007176;28;20064;-72
2022/01/10 05:19:47;;;;;;;35.10;17.92;;;1.30;99.90;;;;;;5005936;28;20068;-72
2022/01/10 05:22:13;;;;;;;27.77;16.30;;;1.40;99.90;;;;;;5008129;28;20485;-72
2022/01/10 05:24:39;;;;;;;28.92;18.27;;;1.40;99.90;;;;;;5004784;28;20042;-73
2022/01/10 05:27:05;;;;;;;29.40;17.23;;;1.40;99.90;;;;;;5005715;28;20144;-73
2022/01/10 05:29:31;;;;;;;29.05;19.30;;;1.40;99.90;;;;;;5004376;28;20048;-72
2022/01/10 05:31:56;;;;;;;35.30;19.88;;;1.40;99.90;;;;;;5004230;28;20423;-72
2022/01/10 05:34:22;;;;;;;34.95;21.75;;;1.40;99.90;;;;;;5006164;28;20038;-72
2022/01/10 05:36:48;;;;;;;28.67;18.77;;;1.50;99.90;;;;;;5004221;28;20046;-73
2022/01/10 05:39:14;;;;;;;35.25;18.65;;;1.50;99.90;;;;;;5005460;28;20053;-72
2022/01/10 05:41:40;;;;;;;29.58;18.15;;;1.50;99.90;;;;;;5005254;28;20045;-73
2022/01/10 05:44:05;;;;;;;29.67;18.80;;;1.50;99.90;;;;;;5006999;28;20104;-73
2022/01/10 05:46:34;;;;;;;30.48;19.50;;;1.50;99.90;;;;;;5006095;28;20073;-72
2022/01/10 05:49:02;;;;;;;32.33;20.92;;;1.50;99.90;;;;;;4993471;28;20136;-73
2022/01/10 05:51:32;;;;;;;32.22;20.45;;;1.50;99.90;;;;;;4993686;28;20046;-72
2022/01/10 05:53:58;;;;;;;27.45;19.35;;;1.50;99.90;;;;;;5004306;28;20050;-73
2022/01/10 05:56:24;;;;;;;33.00;20.73;;;1.50;99.90;;;;;;5009667;28;20109;-73
2022/01/10 05:58:50;;;;;;;36.50;21.95;;;1.50;99.90;;;;;;5009959;28;20052;-72
2022/01/10 06:01:16;;;;;;;34.72;19.20;;;1.50;99.90;;;;;;5008648;28;20057;-73
2022/01/10 06:03:42;;;;;;;36.45;21.23;;;1.50;99.90;;;;;;5008167;28;20046;-72
2022/01/10 06:06:07;;;;;;;27.58;18.50;;;1.50;99.90;;;;;;5009341;28;20432;-73
2022/01/10 06:08:33;;;;;;;28.98;17.48;;;1.50;99.90;;;;;;5009030;28;20408;-72
2022/01/10 06:10:59;;;;;;;27.70;16.88;;;1.50;99.90;;;;;;5009895;28;20042;-73
2022/01/10 06:13:25;;;;;;;33.22;19.58;;;1.40;99.90;;;;;;5009374;28;20496;-73
2022/01/10 06:15:51;;;;;;;31.38;17.67;;;1.40;99.90;;;;;;5010884;28;20038;-72
2022/01/10 06:18:17;;;;;;;34.47;17.83;;;1.40;99.90;;;;;;5007782;28;20093;-72
2022/01/10 06:20:43;;;;;;;25.75;17.02;;;1.30;99.90;;;;;;5009629;28;20500;-73
2022/01/10 06:23:11;;;;;;;26.02;18.27;;;1.20;99.90;;;;;;5009766;28;20042;-73
2022/01/10 06:25:38;;;;;;;30.98;16.92;;;1.20;99.90;;;;;;5009585;28;20511;-73
2022/01/10 06:28:04;;;;;;;31.88;18.05;;;1.10;99.90;;;;;;5009316;28;20050;-72
2022/01/10 06:30:30;;;;;;;28.13;18.40;;;1.10;99.90;;;;;;5010134;28;20050;-72
2022/01/10 06:32:55;;;;;;;30.58;20.23;;;1.10;99.90;;;;;;5008847;28;20499;-72
2022/01/10 06:35:21;;;;;;;37.95;19.65;;;1.10;99.90;;;;;;5009677;28;20149;-72
2022/01/10 06:37:47;;;;;;;28.45;18.55;;;1.00;99.90;;;;;;5008971;28;20038;-72
2022/01/10 06:40:13;;;;;;;31.50;20.13;;;1.00;99.90;;;;;;5010042;28;20149;-72
2022/01/10 06:42:40;;;;;;;25.35;18.50;;;0.90;99.90;;;;;;5005805;28;20085;-72
2022/01/10 06:45:06;;;;;;;23.75;15.93;;;0.90;99.90;;;;;;5009907;28;20489;-73
2022/01/10 06:47:32;;;;;;;25.27;17.40;;;0.90;99.90;;;;;;5011244;28;20046;-72
2022/01/10 06:49:57;;;;;;;23.23;17.52;;;0.90;99.90;;;;;;5013553;28;20042;-73
2022/01/10 06:52:23;;;;;;;25.55;18.08;;;0.90;99.90;;;;;;5006811;28;20054;-72
2022/01/10 06:54:49;;;;;;;24.60;16.88;;;0.90;99.90;;;;;;4998129;28;20045;-73
2022/01/10 06:57:14;;;;;;;30.73;17.35;;;0.90;99.90;;;;;;5006518;28;20164;-73
2022/01/10 06:59:40;;;;;;;32.03;18.80;;;0.80;99.90;;;;;;5007696;28;20068;-72
2022/01/10 07:02:06;;;;;;;29.73;17.85;;;0.80;99.90;;;;;;5009704;28;20491;-72
2022/01/10 07:04:32;;;;;;;26.52;17.23;;;0.80;99.90;;;;;;5005182;28;20042;-72
2022/01/10 07:06:58;;;;;;;29.60;17.30;;;0.80;99.90;;;;;;5008218;28;20604;-72
2022/01/10 07:09:24;;;;;;;28.20;17.13;;;0.70;99.90;;;;;;5007828;28;20054;-72
2022/01/10 07:11:49;;;;;;;25.88;17.75;;;0.70;99.90;;;;;;5004428;28;20049;-73
2022/01/10 07:14:16;;;;;;;28.67;18.05;;;0.70;99.90;;;;;;5008770;28;20050;-73
2022/01/10 07:16:43;;;;;;;27.88;18.02;;;0.70;99.90;;;;;;5009003;28;20042;-73
2022/01/10 07:19:09;;;;;;;31.73;17.87;;;0.80;99.90;;;;;;5004857;28;20053;-73
2022/01/10 07:21:39;;;;;;;24.88;18.13;;;0.80;99.90;;;;;;5008828;28;20397;-72
2022/01/10 07:24:06;;;;;;;26.00;19.65;;;0.70;99.90;;;;;;5008763;28;20145;-72
2022/01/10 07:26:32;;;;;;;29.05;17.73;;;0.70;99.90;;;;;;5009141;28;20100;-72
2022/01/10 07:29:02;;;;;;;29.33;19.45;;;0.70;99.90;;;;;;5003639;28;20086;-74
2022/01/10 07:31:28;;;;;;;28.23;20.33;;;0.70;99.90;;;;;;5007504;28;20081;-73
2022/01/10 07:33:54;;;;;;;28.52;19.20;;;0.70;99.90;;;;;;5008253;28;20085;-72
2022/01/10 07:36:20;;;;;;;42.05;23.90;;;0.70;99.90;;;;;;5008749;28;20178;-73
2022/01/10 07:38:46;;;;;;;38.58;25.98;;;0.70;99.90;;;;;;5004969;28;20539;-72
2022/01/10 07:41:12;;;;;;;35.58;24.33;;;0.70;99.90;;;;;;5009633;28;20050;-74
2022/01/10 07:43:37;;;;;;;34.30;22.65;;;0.70;99.90;;;;;;5007715;28;20497;-72
2022/01/10 07:46:05;;;;;;;36.58;22.17;;;0.80;99.90;;;;;;5004535;28;20393;-71
2022/01/10 07:48:33;;;;;;;39.22;23.83;;;0.70;99.90;;;;;;5002600;28;20053;-71
2022/01/10 07:50:59;;;;;;;39.78;22.80;;;0.70;99.90;;;;;;5006102;28;20133;-72
2022/01/10 07:53:25;;;;;;;37.75;24.33;;;0.60;99.90;;;;;;5004069;28;20564;-71
2022/01/10 07:55:51;;;;;;;33.42;23.60;;;0.60;99.90;;;;;;5006779;28;20046;-71
2022/01/10 07:58:17;;;;;;;36.00;22.63;;;0.60;99.90;;;;;;5006072;28;20045;-71
2022/01/10 08:00:44;;;;;;;31.58;23.33;;;0.60;99.90;;;;;;5003321;28;20045;-72
2022/01/10 08:03:09;;;;;;;34.10;24.30;;;0.70;99.90;;;;;;5006918;28;20042;-71
2022/01/10 08:05:35;;;;;;;35.67;23.50;;;0.70;99.90;;;;;;5006849;28;20049;-71
2022/01/10 08:08:00;;;;;;;39.30;24.67;;;0.60;99.90;;;;;;5005883;28;20046;-71
2022/01/10 08:10:26;;;;;;;36.17;24.00;;;0.60;99.90;;;;;;5008492;28;20054;-71
2022/01/10 08:12:52;;;;;;;40.60;24.58;;;0.60;99.90;;;;;;5002341;28;20048;-71
2022/01/10 08:15:19;;;;;;;40.17;25.85;;;0.70;99.90;;;;;;5006570;28;20045;-72
2022/01/10 08:17:46;;;;;;;45.63;28.33;;;0.70;99.90;;;;;;5003253;28;20058;-71
2022/01/10 08:20:12;;;;;;;38.38;25.17;;;0.70;99.90;;;;;;4999275;28;20037;-71
2022/01/10 08:22:38;;;;;;;38.17;24.85;;;0.70;99.90;;;;;;5005177;28;20045;-71
2022/01/10 08:25:04;;;;;;;39.83;26.17;;;0.70;99.90;;;;;;4994795;28;20052;-71
2022/01/10 08:27:30;;;;;;;39.65;26.58;;;0.80;99.90;;;;;;5006761;28;20042;-71
2022/01/10 08:29:55;;;;;;;39.05;30.55;;;0.80;99.90;;;;;;4997527;28;20054;-71
2022/01/10 08:32:21;;;;;;;44.10;26.67;;;0.80;99.90;;;;;;5002650;28;20057;-71
2022/01/10 08:34:47;;;;;;;40.22;28.00;;;0.80;99.90;;;;;;4995109;28;20052;-71
2022/01/10 08:37:13;;;;;;;43.05;28.88;;;0.80;99.90;;;;;;5007163;28;20046;-70
2022/01/10 08:39:38;;;;;;;39.25;26.10;;;0.80;99.90;;;;;;5008650;28;20056;-72
2022/01/10 08:42:04;;;;;;;34.10;24.23;;;0.80;99.90;;;;;;5004013;28;20050;-71
2022/01/10 08:44:30;;;;;;;36.10;26.05;;;0.80;99.90;;;;;;5004789;28;20042;-71
2022/01/10 08:46:55;;;;;;;39.33;27.52;;;0.80;99.90;;;;;;5007571;28;20069;-71
2022/01/10 08:49:21;;;;;;;39.70;29.02;;;0.80;99.90;;;;;;5019921;28;20548;-71
2022/01/10 08:51:54;;;;;;;34.30;26.02;;;0.80;99.90;;;;;;5007595;28;20096;-71
2022/01/10 08:54:22;;;;;;;43.60;30.95;;;0.80;99.90;;;;;;5022830;28;20049;-71
2022/01/10 08:56:48;;;;;;;39.55;30.67;;;0.80;99.90;;;;;;5006145;28;20056;-72
2022/01/10 08:59:13;;;;;;;45.85;30.40;;;0.90;99.90;;;;;;5005115;28;20168;-71
2022/01/10 09:01:39;;;;;;;44.20;33.50;;;0.90;99.90;;;;;;5006527;28;20599;-71
2022/01/10 09:04:05;;;;;;;42.95;31.08;;;0.90;99.90;;;;;;5005134;28;20054;-70
2022/01/10 09:06:31;;;;;;;47.78;31.13;;;0.90;99.90;;;;;;5005822;28;20045;-70
2022/01/10 09:08:56;;;;;;;46.10;31.52;;;1.00;99.90;;;;;;5006245;28;20038;-71
2022/01/10 09:11:23;;;;;;;47.53;33.55;;;1.00;99.90;;;;;;5005144;28;20041;-70
2022/01/10 09:13:49;;;;;;;45.70;31.47;;;1.10;99.90;;;;;;5003772;28;20054;-70
2022/01/10 09:16:14;;;;;;;41.42;32.92;;;1.10;99.90;;;;;;4989110;28;20376;-72
2022/01/10 09:18:40;;;;;;;44.95;33.70;;;1.20;99.90;;;;;;5003151;28;20060;-72
2022/01/10 09:21:07;;;;;;;43.10;31.88;;;1.30;99.90;;;;;;5008570;28;20137;-71
2022/01/10 09:23:32;;;;;;;46.25;37.13;;;1.40;99.90;;;;;;5008141;28;20408;-70
2022/01/10 09:25:58;;;;;;;45.05;37.05;;;1.40;99.90;;;;;;4999856;28;20054;-70
2022/01/10 09:28:23;;;;;;;45.67;36.75;;;1.50;99.90;;;;;;5007486;28;20137;-70
2022/01/10 09:30:49;;;;;;;46.97;37.38;;;1.50;99.90;;;;;;5007495;28;20054;-71
2022/01/10 09:33:15;;;;;;;46.47;37.58;;;1.60;99.90;;;;;;5007148;28;20050;-71
2022/01/10 09:35:42;;;;;;;43.03;35.70;;;1.70;99.90;;;;;;5015516;28;20049;-70
2022/01/10 09:38:09;;;;;;;46.30;37.40;;;1.70;99.90;;;;;;5009089;28;20096;-70
2022/01/10 09:40:34;;;;;;;44.28;34.35;;;1.70;99.90;;;;;;5007280;28;20117;-70
2022/01/10 09:43:00;;;;;;;40.53;32.72;;;1.80;99.90;;;;;;5007043;28;20478;-71
2022/01/10 09:45:26;;;;;;;37.10;31.92;;;1.90;99.90;;;;;;5008249;28;20045;-71
2022/01/10 09:47:52;;;;;;;41.53;32.92;;;1.90;99.90;;;;;;5006650;28;20049;-70
2022/01/10 09:50:18;;;;;;;39.75;33.50;;;1.90;99.90;;;;;;5008698;28;20079;-71
2022/01/10 09:52:48;;;;;;;42.38;34.15;;;2.00;99.90;;;;;;5005729;28;20066;-70
2022/01/10 09:55:14;;;;;;;41.55;33.58;;;2.00;99.90;;;;;;5006941;28;20069;-70
2022/01/10 09:57:40;;;;;;;40.88;34.40;;;2.10;99.90;;;;;;5021083;28;20426;-70
2022/01/10 10:00:08;;;;;;;38.95;32.60;;;2.10;99.90;;;;;;5007522;28;20046;-71
2022/01/10 10:02:34;;;;;;;;;;;2.20;99.90;;;;;;5005687;28;20151;-70
2022/01/10 10:05:01;;;;;;;40.22;34.17;;;2.20;99.90;;;;;;5004616;28;20376;-71
2022/01/10 10:07:27;;;;;;;41.90;36.00;;;2.20;99.90;;;;;;5005451;28;20072;-70
2022/01/10 10:09:57;;;;;;;42.13;34.95;;;2.30;99.90;;;;;;5005920;28;20100;-70
2022/01/10 10:12:26;;;;;;;41.08;34.70;;;2.40;99.90;;;;;;5005554;28;20052;-70
2022/01/10 10:14:52;;;;;;;38.83;32.95;;;2.50;99.90;;;;;;5005082;28;20061;-70
2022/01/10 10:17:20;;;;;;;41.28;33.88;;;2.50;99.90;;;;;;5005942;28;20045;-70
2022/01/10 10:19:46;;;;;;;44.53;33.92;;;2.60;99.90;;;;;;5004257;28;20444;-70
2022/01/10 10:22:15;;;;;;;47.72;34.53;;;2.60;99.90;;;;;;5004411;28;20034;-72
2022/01/10 10:24:41;;;;;;;39.78;34.20;;;2.60;99.90;;;;;;5004241;28;20490;-72
2022/01/10 10:27:08;;;;;;;44.33;34.10;;;2.60;99.90;;;;;;5009322;28;20544;-72
2022/01/10 10:29:37;;;;;;;42.13;33.43;;;2.70;99.90;;;;;;5006866;28;20057;-71
2022/01/10 10:32:04;;;;;;;43.35;34.20;;;2.70;99.90;;;;;;5006787;28;20549;-71
2022/01/10 10:34:32;;;;;;;47.33;35.70;;;2.80;99.90;;;;;;5007838;28;20073;-71
2022/01/10 10:37:14;;;;;;;45.28;34.35;;;2.80;99.90;;;;;;5010000;28;20037;-72
2022/01/10 10:39:43;;;;;;;43.92;33.63;;;2.90;99.90;;;;;;5019874;28;20046;-72
2022/01/10 10:42:14;;;;;;;43.60;34.42;;;2.90;99.90;;;;;;5006835;28;20092;-71
2022/01/10 10:44:44;;;;;;;45.35;34.40;;;2.90;99.90;;;;;;5009362;28;20489;-71
2022/01/10 10:47:16;;;;;;;43.22;33.28;;;3.00;99.90;;;;;;5011482;28;20101;-72
2022/01/10 10:49:46;;;;;;;44.92;35.10;;;3.00;99.90;;;;;;5008713;28;20034;-72
2022/01/10 10:52:12;;;;;;;39.25;32.22;;;3.00;99.90;;;;;;5024409;28;20049;-72
2022/01/10 10:54:39;;;;;;;38.40;32.45;;;3.10;99.90;;;;;;5011020;28;20501;-73
2022/01/10 10:57:08;;;;;;;50.13;34.55;;;3.10;99.90;;;;;;5010521;28;21681;-72
2022/01/10 10:59:39;;;;;;;40.47;33.72;;;3.10;99.90;;;;;;5010206;28;20061;-71
2022/01/10 11:02:05;;;;;;;41.97;34.50;;;3.20;99.90;;;;;;5008918;28;20068;-71
2022/01/10 11:04:31;;;;;;;44.92;33.70;;;3.20;99.90;;;;;;5009530;28;20057;-72
2022/01/10 11:06:58;;;;;;;44.45;33.88;;;3.30;99.90;;;;;;5006123;28;20034;-71
2022/01/10 11:09:25;;;;;;;45.72;34.35;;;3.30;99.90;;;;;;5014771;28;20045;-72
2022/01/10 11:11:51;;;;;;;41.17;34.87;;;3.40;99.90;;;;;;5032390;28;20165;-72
2022/01/10 11:14:18;;;;;;;44.50;34.53;;;3.40;99.90;;;;;;5022351;28;20137;-72
2022/01/10 11:16:46;;;;;;;44.70;34.78;;;3.50;99.90;;;;;;5009787;28;20052;-72
2022/01/10 11:19:13;;;;;;;45.78;35.97;;;3.50;99.90;;;;;;5009291;28;20054;-71
2022/01/10 11:21:40;;;;;;;59.08;52.40;;;3.60;99.90;;;;;;5007897;28;20065;-71
2022/01/10 11:24:06;;;;;;;52.15;41.42;;;3.60;99.90;;;;;;5007346;28;20396;-71
2022/01/10 11:26:40;;;;;;;46.53;36.35;;;3.70;99.90;;;;;;5011637;28;20052;-74
2022/01/10 11:29:09;;;;;;;42.63;34.00;;;3.70;99.90;;;;;;5008985;28;20044;-72
2022/01/10 11:31:39;;;;;;;44.33;32.22;;;3.70;99.90;;;;;;5010989;28;20440;-73
2022/01/10 11:34:05;;;;;;;43.10;32.72;;;3.80;99.90;;;;;;5014311;28;20061;-73
2022/01/10 11:36:31;;;;;;;40.40;32.13;;;3.80;99.90;;;;;;5009146;28;20057;-73
2022/01/10 11:39:09;;;;;;;47.60;33.22;;;3.80;99.90;;;;;;5008596;28;20081;-72
2022/01/10 11:41:34;;;;;;;44.60;33.05;;;3.80;99.90;;;;;;5008840;28;20077;-73
2022/01/10 11:44:12;;;;;;;40.78;33.10;;;3.90;99.90;;;;;;5009515;28;20161;-72
2022/01/10 11:46:50;;;;;;;36.17;32.28;;;3.90;99.90;;;;;;5007366;28;20046;-72
2022/01/10 11:49:20;;;;;;;;;;;3.90;99.90;;;;;;5009144;28;20058;-72
2022/01/10 11:51:52;;;;;;;42.05;33.20;;;3.90;99.90;;;;;;5007872;28;20364;-72
2022/01/10 11:54:38;;;;;;;40.13;33.70;;;3.90;99.90;;;;;;5010170;28;20053;-72
2022/01/10 11:57:06;;;;;;;44.60;34.22;;;4.00;99.90;;;;;;5006594;28;20037;-73
2022/01/10 11:59:37;;;;;;;39.97;33.80;;;4.00;99.90;;;;;;5008040;28;20046;-74
2022/01/10 12:02:09;;;;;;;44.38;34.92;;;4.00;99.90;;;;;;5009190;28;20042;-72
2022/01/10 12:04:40;;;;;;;42.45;33.45;;;4.10;99.90;;;;;;5008544;28;20050;-72
2022/01/10 12:07:09;;;;;;;42.75;34.97;;;4.10;99.90;;;;;;5007699;28;20091;-73
2022/01/10 12:09:35;;;;;;;42.92;34.35;;;4.10;99.90;;;;;;5007827;28;20054;-73
2022/01/10 12:12:03;;;;;;;43.80;33.78;;;4.20;99.90;;;;;;5002591;28;20050;-73
2022/01/10 12:14:29;;;;;;;;;;;4.20;99.90;;;;;;5003244;28;20049;-71
2022/01/10 12:16:56;;;;;;;41.90;34.28;;;4.20;99.90;;;;;;5008947;28;19952;-72
2022/01/10 12:19:22;;;;;;;47.45;35.22;;;4.30;99.90;;;;;;5009247;28;20050;-72
2022/01/10 12:21:48;;;;;;;45.83;35.42;;;4.30;99.90;;;;;;5006286;28;20464;-72
2022/01/10 12:24:15;;;;;;;45.75;37.67;;;4.30;99.90;;;;;;5009503;28;20133;-72
2022/01/10 12:26:42;;;;;;;44.72;36.67;;;4.30;99.90;;;;;;5008105;28;20127;-72
2022/01/10 12:29:09;;;;;;;48.20;36.63;;;4.40;99.90;;;;;;5009007;28;20052;-73
2022/01/10 12:31:36;;;;;;;44.40;36.10;;;4.40;99.90;;;;;;5007443;28;20050;-72
2022/01/10 12:34:03;;;;;;;42.88;34.70;;;4.40;99.90;;;;;;5006584;28;20481;-73
2022/01/10 12:36:30;;;;;;;41.53;34.20;;;4.50;99.90;;;;;;5007009;28;20704;-72
2022/01/10 12:39:03;;;;;;;41.47;36.35;;;4.50;99.90;;;;;;5005635;28;20543;-73
2022/01/10 12:41:29;;;;;;;44.63;34.38;;;4.50;99.90;;;;;;5012681;28;20057;-73
2022/01/10 12:43:55;;;;;;;46.78;34.42;;;4.60;99.90;;;;;;5008592;28;20065;-72
2022/01/10 12:46:23;;;;;;;43.80;34.40;;;4.60;99.90;;;;;;5007452;28;20042;-73
2022/01/10 12:48:50;;;;;;;;;;;4.60;99.90;;;;;;5006955;28;20049;-73
2022/01/10 12:51:21;;;;;;;44.22;35.08;;;4.60;99.90;;;;;;5007285;28;19925;-72